createdAt,value
2018-12-24T00:01:52.410Z,3.40
2018-12-24T00:04:23.426Z,3.37
2018-12-24T00:06:53.891Z,3.43
2018-12-24T00:09:25.377Z,3.30
2018-12-24T00:11:56.042Z,3.00
2018-12-24T00:14:26.945Z,3.37
2018-12-24T00:16:57.342Z,3.00
2018-12-24T00:19:27.866Z,2.70
2018-12-24T00:21:58.306Z,2.53
2018-12-24T00:24:30.098Z,2.10
2018-12-24T00:27:01.208Z,2.23
2018-12-24T00:29:31.902Z,2.13
2018-12-24T00:32:02.359Z,1.90
2018-12-24T00:34:34.560Z,2.10
2018-12-24T00:37:05.418Z,1.90
2018-12-24T00:39:37.565Z,2.00
2018-12-24T00:42:15.640Z,2.10
2018-12-24T00:44:40.547Z,2.57
2018-12-24T00:47:11.112Z,2.20
2018-12-24T00:49:42.777Z,2.07
2018-12-24T00:52:13.270Z,2.03
2018-12-24T00:54:45.410Z,2.20
2018-12-24T00:57:16.045Z,2.40
2018-12-24T00:59:47.152Z,2.10
2018-12-24T01:02:18.240Z,2.00
2018-12-24T01:04:49.133Z,2.20
2018-12-24T01:07:19.580Z,2.30
2018-12-24T01:09:51.353Z,2.30
2018-12-24T01:12:24.747Z,2.10
2018-12-24T01:14:54.566Z,2.30
2018-12-24T01:17:25.419Z,2.30
2018-12-24T01:19:56.812Z,2.60
2018-12-24T01:22:27.386Z,2.10
2018-12-24T01:24:58.215Z,2.40
2018-12-24T01:27:29.471Z,2.40
2018-12-24T01:30:00.866Z,2.03
2018-12-24T01:32:31.858Z,1.80
2018-12-24T01:35:02.753Z,2.03
2018-12-24T01:37:33.447Z,1.70
2018-12-24T01:40:05.499Z,1.70
2018-12-24T01:42:36.381Z,1.70
2018-12-24T01:45:07.729Z,1.70
2018-12-24T01:47:38.542Z,1.80
2018-12-24T01:50:10.348Z,1.80
2018-12-24T01:52:41.298Z,1.70
2018-12-24T01:55:12.649Z,1.60
2018-12-24T01:57:43.195Z,1.70
2018-12-24T02:00:13.954Z,1.80
2018-12-24T02:02:44.392Z,1.70
2018-12-24T02:05:16.503Z,1.60
2018-12-24T02:07:47.647Z,1.70
2018-12-24T02:10:19.870Z,1.80
2018-12-24T02:12:50.294Z,1.60
2018-12-24T02:15:20.902Z,1.50
2018-12-24T02:17:51.623Z,1.53
2018-12-24T02:20:22.940Z,1.73
2018-12-24T02:22:53.448Z,1.50
2018-12-24T02:25:24.142Z,1.60
2018-12-24T02:27:54.617Z,1.50
2018-12-24T02:30:25.125Z,1.50
2018-12-24T02:32:56.081Z,1.40
2018-12-24T02:35:26.838Z,1.90
2018-12-24T02:37:57.520Z,1.70
2018-12-24T02:40:29.081Z,1.60
2018-12-24T02:42:59.652Z,1.70
2018-12-24T02:45:30.457Z,1.90
2018-12-24T02:48:01.064Z,1.70
2018-12-24T02:50:34.067Z,1.70
2018-12-24T02:53:04.956Z,1.70
2018-12-24T02:55:35.440Z,1.60
2018-12-24T02:58:05.813Z,1.80
2018-12-24T03:00:36.216Z,1.73
2018-12-24T03:03:07.196Z,1.70
2018-12-24T03:05:37.759Z,1.80
2018-12-24T03:08:08.952Z,1.50
2018-12-24T03:10:39.691Z,1.90
2018-12-24T03:13:10.257Z,1.80
2018-12-24T03:15:40.953Z,1.70
2018-12-24T03:18:12.145Z,1.70
2018-12-24T03:20:42.735Z,1.73
2018-12-24T03:23:13.346Z,1.80
2018-12-24T03:25:44.577Z,1.60
2018-12-24T03:28:15.514Z,1.80
2018-12-24T03:30:46.470Z,1.70
2018-12-24T03:33:17.428Z,1.70
2018-12-24T03:35:48.042Z,1.70
2018-12-24T03:38:18.330Z,1.70
2018-12-24T03:40:48.816Z,1.90
2018-12-24T03:43:19.629Z,1.60
2018-12-24T03:45:50.613Z,1.73
2018-12-24T03:48:21.201Z,1.90
2018-12-24T03:50:51.698Z,1.90
2018-12-24T03:53:22.114Z,1.80
2018-12-24T03:55:52.560Z,1.90
2018-12-24T03:58:22.919Z,1.80
2018-12-24T04:00:53.237Z,1.70
2018-12-24T04:03:25.196Z,1.70
2018-12-24T04:05:55.880Z,1.90
2018-12-24T04:08:28.857Z,1.77
2018-12-24T04:11:00.991Z,1.80
2018-12-24T04:13:32.456Z,1.80
2018-12-24T04:16:03.195Z,1.90
2018-12-24T04:18:35.201Z,1.80
2018-12-24T04:21:06.486Z,1.70
2018-12-24T04:23:37.389Z,1.70
2018-12-24T04:26:08.526Z,1.70
2018-12-24T04:28:39.032Z,1.70
2018-12-24T04:31:10.066Z,1.60
2018-12-24T04:33:40.637Z,1.63
2018-12-24T04:36:11.329Z,1.77
2018-12-24T04:38:42.205Z,1.70
2018-12-24T04:41:13.209Z,1.60
2018-12-24T04:43:43.919Z,1.70
2018-12-24T04:46:53.675Z,2.00
2018-12-24T04:49:24.071Z,2.00
2018-12-24T04:51:54.206Z,2.03
2018-12-24T04:54:24.849Z,2.10
2018-12-24T04:56:55.112Z,2.10
2018-12-24T04:59:26.370Z,1.80
2018-12-24T05:01:57.073Z,1.90
2018-12-24T05:04:29.525Z,2.00
2018-12-24T05:06:59.482Z,1.80
2018-12-24T05:09:29.974Z,2.20
2018-12-24T05:12:00.367Z,1.70
2018-12-24T05:14:32.061Z,1.80
2018-12-24T05:17:02.441Z,1.87
2018-12-24T05:19:32.924Z,2.13
2018-12-24T05:22:03.163Z,2.00
2018-12-24T05:24:33.401Z,1.87
2018-12-24T05:27:04.235Z,2.10
2018-12-24T05:29:36.001Z,2.10
2018-12-24T05:32:06.455Z,2.40
2018-12-24T05:34:36.476Z,2.10
2018-12-24T05:37:06.891Z,2.10
2018-12-24T05:39:37.447Z,2.00
2018-12-24T05:42:07.291Z,1.93
2018-12-24T05:44:37.203Z,2.33
2018-12-24T05:47:07.254Z,2.10
2018-12-24T05:49:37.552Z,2.43
2018-12-24T05:52:07.531Z,2.20
2018-12-24T05:54:38.088Z,2.40
2018-12-24T05:57:09.030Z,2.30
2018-12-24T05:59:39.025Z,2.40
2018-12-24T06:02:09.469Z,2.83
2018-12-24T06:04:40.485Z,2.87
2018-12-24T06:07:11.765Z,3.00
2018-12-24T06:09:42.231Z,2.50
2018-12-24T06:12:13.287Z,2.70
2018-12-24T06:14:43.186Z,2.60
2018-12-24T06:17:13.739Z,2.53
2018-12-24T06:19:43.856Z,2.53
2018-12-24T06:22:15.343Z,2.40
2018-12-24T06:24:46.208Z,2.50
2018-12-24T06:27:16.718Z,3.00
2018-12-24T06:29:47.125Z,2.33
2018-12-24T06:32:19.581Z,2.97
2018-12-24T06:34:51.563Z,2.90
2018-12-24T06:37:22.309Z,2.80
2018-12-24T06:39:52.525Z,3.60
2018-12-24T06:42:24.094Z,3.07
2018-12-24T06:44:54.240Z,3.07
2018-12-24T06:47:25.751Z,3.00
2018-12-24T06:49:56.169Z,2.80
2018-12-24T06:52:27.285Z,3.10
2018-12-24T06:54:57.339Z,3.00
2018-12-24T06:57:28.218Z,3.10
2018-12-24T06:59:58.254Z,3.30
2018-12-24T07:02:30.590Z,3.20
2018-12-24T07:05:00.812Z,3.47
2018-12-24T07:07:32.075Z,3.00
2018-12-24T07:10:02.624Z,3.47
2018-12-24T07:12:33.036Z,3.00
2018-12-24T07:15:03.644Z,2.90
2018-12-24T07:17:34.758Z,2.67
2018-12-24T07:20:05.346Z,2.97
2018-12-24T07:22:36.821Z,3.40
2018-12-24T07:25:07.288Z,2.80
2018-12-24T07:27:38.535Z,2.77
2018-12-24T07:30:08.888Z,2.73
2018-12-24T07:32:39.459Z,3.17
2018-12-24T07:35:09.476Z,3.10
2018-12-24T07:37:42.301Z,3.40
2018-12-24T07:40:12.757Z,3.10
2018-12-24T07:42:43.777Z,3.03
2018-12-24T07:45:13.913Z,3.07
2018-12-24T07:47:46.857Z,2.80
2018-12-24T07:50:17.090Z,3.40
2018-12-24T07:52:47.700Z,3.23
2018-12-24T07:55:18.035Z,3.30
2018-12-24T07:57:49.728Z,2.90
2018-12-24T08:00:20.279Z,2.90
2018-12-24T08:02:51.963Z,3.50
2018-12-24T08:05:22.346Z,2.93
2018-12-24T08:07:52.944Z,3.23
2018-12-24T08:10:23.285Z,3.40
2018-12-24T08:12:53.687Z,3.10
2018-12-24T08:15:23.822Z,3.43
2018-12-24T08:17:54.842Z,3.13
2018-12-24T08:20:25.058Z,3.20
2018-12-24T08:22:56.531Z,3.00
2018-12-24T08:25:27.000Z,2.90
2018-12-24T08:27:59.876Z,2.70
2018-12-24T08:30:30.224Z,3.00
2018-12-24T08:33:02.054Z,3.07
2018-12-24T08:35:32.511Z,2.90
2018-12-24T08:38:04.208Z,2.70
2018-12-24T08:40:34.295Z,2.80
2018-12-24T08:43:06.620Z,2.80
2018-12-24T08:45:36.781Z,2.60
2018-12-24T08:48:07.656Z,2.60
2018-12-24T08:50:38.194Z,2.80
2018-12-24T08:53:09.806Z,2.90
2018-12-24T08:55:40.640Z,2.90
2018-12-24T08:58:11.954Z,2.60
2018-12-24T09:00:42.060Z,2.47
2018-12-24T09:03:12.777Z,2.37
2018-12-24T09:05:42.966Z,2.27
2018-12-24T09:08:13.750Z,2.67
2018-12-24T09:10:44.181Z,3.30
2018-12-24T09:13:15.201Z,2.87
2018-12-24T09:15:45.821Z,2.60
2018-12-24T09:18:16.567Z,2.77
2018-12-24T09:20:52.606Z,2.40
2018-12-24T09:23:22.109Z,2.60
2018-12-24T09:25:52.530Z,2.40
2018-12-24T09:28:22.921Z,2.50
2018-12-24T09:30:53.609Z,2.37
2018-12-24T09:33:25.594Z,2.50
2018-12-24T09:35:55.916Z,2.40
2018-12-24T09:38:27.353Z,2.37
2018-12-24T09:40:57.768Z,2.30
2018-12-24T09:43:28.510Z,2.40
2018-12-24T09:45:58.678Z,2.30
2018-12-24T09:48:29.384Z,2.00
2018-12-24T09:50:59.897Z,2.10
2018-12-24T09:53:30.184Z,2.03
2018-12-24T09:56:00.840Z,2.27
2018-12-24T09:58:33.615Z,2.70
2018-12-24T10:01:04.652Z,2.37
2018-12-24T10:03:44.671Z,2.30
2018-12-24T10:06:22.833Z,2.40
2018-12-24T10:08:52.869Z,2.60
2018-12-24T10:11:23.330Z,2.37
2018-12-24T10:13:54.080Z,2.33
2018-12-24T10:16:24.945Z,2.37
2018-12-24T10:18:55.090Z,2.23
2018-12-24T10:21:25.587Z,2.50
2018-12-24T10:23:57.039Z,2.80
2018-12-24T10:26:27.913Z,2.50
2018-12-24T10:28:58.038Z,2.27
2018-12-24T10:31:30.027Z,2.37
2018-12-24T10:34:00.891Z,2.50
2018-12-24T10:36:31.738Z,2.40
2018-12-24T10:39:02.934Z,2.53
2018-12-24T10:41:32.956Z,2.10
2018-12-24T10:44:06.282Z,2.30
2018-12-24T10:46:36.896Z,3.10
2018-12-24T10:49:07.204Z,2.40
2018-12-24T10:51:37.405Z,1.80
2018-12-24T10:54:07.384Z,2.70
2018-12-24T10:56:37.520Z,2.00
2018-12-24T10:59:10.063Z,1.97
2018-12-24T11:01:40.129Z,1.90
2018-12-24T11:04:13.828Z,2.07
2018-12-24T11:06:44.671Z,2.03
2018-12-24T11:09:16.666Z,1.80
2018-12-24T11:11:47.006Z,1.50
2018-12-24T11:14:17.966Z,1.80
2018-12-24T11:16:48.065Z,1.70
2018-12-24T11:19:20.859Z,1.90
2018-12-24T11:21:52.620Z,1.53
2018-12-24T11:24:23.142Z,1.47
2018-12-24T11:26:53.071Z,1.63
2018-12-24T11:29:23.856Z,1.60
2018-12-24T11:31:53.870Z,1.40
2018-12-24T11:34:24.786Z,1.70
2018-12-24T11:36:54.691Z,1.50
2018-12-24T11:39:25.358Z,1.70
2018-12-24T11:41:55.821Z,1.53
2018-12-24T11:44:26.934Z,1.70
2018-12-24T11:46:57.510Z,1.80
2018-12-24T11:49:29.586Z,1.57
2018-12-24T11:52:00.912Z,1.57
2018-12-24T11:54:32.535Z,1.47
2018-12-24T11:57:02.898Z,1.83
2018-12-24T11:59:33.565Z,1.63
2018-12-24T12:02:09.957Z,1.70
2018-12-24T12:04:35.903Z,1.90
2018-12-24T12:07:06.581Z,2.30
2018-12-24T12:09:37.394Z,1.90
2018-12-24T12:12:07.580Z,2.20
2018-12-24T12:14:38.404Z,2.17
2018-12-24T12:17:08.970Z,2.20
2018-12-24T12:19:40.094Z,1.93
2018-12-24T12:22:10.951Z,2.17
2018-12-24T12:24:43.419Z,2.00
2018-12-24T12:27:13.958Z,1.90
2018-12-24T12:29:45.963Z,1.90
2018-12-24T12:32:16.608Z,1.90
2018-12-24T12:34:49.395Z,1.97
2018-12-24T12:37:19.930Z,1.90
2018-12-24T12:39:50.568Z,2.30
2018-12-24T12:42:22.218Z,2.07
2018-12-24T12:44:54.028Z,2.30
2018-12-24T12:47:24.617Z,2.40
2018-12-24T12:49:55.792Z,2.30
2018-12-24T12:52:26.310Z,2.40
2018-12-24T12:54:57.584Z,2.27
2018-12-24T12:57:27.536Z,2.20
2018-12-24T12:59:58.458Z,2.20
2018-12-24T13:02:28.901Z,2.30
2018-12-24T13:04:59.197Z,2.30
2018-12-24T13:07:29.410Z,2.50
2018-12-24T13:09:59.801Z,2.37
2018-12-24T13:12:30.104Z,2.30
2018-12-24T13:15:01.163Z,2.20
2018-12-24T13:17:31.267Z,2.40
2018-12-24T13:20:02.274Z,2.13
2018-12-24T13:22:32.254Z,2.20
2018-12-24T13:25:04.852Z,1.93
2018-12-24T13:27:35.265Z,2.07
2018-12-24T13:30:07.266Z,2.40
2018-12-24T13:32:37.614Z,2.60
2018-12-24T13:35:08.669Z,2.37
2018-12-24T13:37:39.201Z,2.30
2018-12-24T13:40:10.972Z,2.53
2018-12-24T13:42:41.492Z,2.50
2018-12-24T13:45:12.443Z,2.33
2018-12-24T13:47:42.831Z,2.27
2018-12-24T13:50:13.793Z,2.30
2018-12-24T13:52:43.874Z,2.80
2018-12-24T13:55:14.420Z,2.47
2018-12-24T13:57:44.584Z,2.40
2018-12-24T14:00:16.227Z,2.87
2018-12-24T14:02:46.895Z,2.33
2018-12-24T14:05:19.105Z,2.50
2018-12-24T14:07:50.718Z,3.00
2018-12-24T14:10:21.857Z,2.40
2018-12-24T14:12:53.818Z,2.40
2018-12-24T14:15:27.769Z,2.90
2018-12-24T14:17:58.637Z,2.50
2018-12-24T14:20:30.652Z,2.50
2018-12-24T14:23:00.774Z,2.37
2018-12-24T14:25:30.947Z,2.80
2018-12-24T14:28:00.907Z,2.47
2018-12-24T14:30:31.142Z,2.60
2018-12-24T14:33:01.240Z,2.83
2018-12-24T14:35:32.367Z,2.63
2018-12-24T14:38:03.040Z,2.50
2018-12-24T14:40:34.226Z,3.30
2018-12-24T14:43:05.159Z,3.00
2018-12-24T14:45:35.985Z,2.87
2018-12-24T14:48:06.700Z,3.27
2018-12-24T14:50:38.248Z,3.43
2018-12-24T14:53:08.173Z,3.33
2018-12-24T14:55:39.431Z,3.40
2018-12-24T14:58:10.041Z,3.70
2018-12-24T15:00:41.814Z,3.73
2018-12-24T15:03:12.303Z,3.67
2018-12-24T15:05:43.513Z,3.93
2018-12-24T15:08:14.127Z,3.83
2018-12-24T15:10:45.695Z,3.63
2018-12-24T15:13:16.589Z,4.07
2018-12-24T15:15:47.368Z,3.83
2018-12-24T15:18:18.400Z,4.30
2018-12-24T15:20:48.728Z,3.90
2018-12-24T15:23:19.402Z,4.27
2018-12-24T15:25:50.409Z,4.30
2018-12-24T15:28:21.903Z,3.80
2018-12-24T15:30:53.935Z,4.30
2018-12-24T15:33:24.364Z,4.30
2018-12-24T15:35:55.917Z,4.20
2018-12-24T15:38:26.246Z,3.70
2018-12-24T15:40:56.804Z,4.33
2018-12-24T15:43:27.189Z,3.90
2018-12-24T15:45:58.596Z,4.47
2018-12-24T15:48:28.976Z,4.50
2018-12-24T15:51:00.023Z,4.37
2018-12-24T15:53:30.095Z,4.23
2018-12-24T15:56:00.640Z,4.60
2018-12-24T15:58:30.998Z,4.70
2018-12-24T16:01:01.970Z,4.30
2018-12-24T16:03:36.821Z,4.37
2018-12-24T16:06:03.480Z,3.53
2018-12-24T16:08:33.625Z,3.70
2018-12-24T16:11:03.910Z,3.77
2018-12-24T16:13:34.542Z,3.90
2018-12-24T16:16:05.627Z,4.33
2018-12-24T16:18:35.880Z,3.60
2018-12-24T16:21:06.718Z,4.30
2018-12-24T16:23:37.010Z,4.03
2018-12-24T16:26:07.510Z,4.30
2018-12-24T16:28:38.581Z,4.43
2018-12-24T16:31:09.125Z,4.47
2018-12-24T16:33:39.574Z,4.10
2018-12-24T16:36:09.786Z,4.40
2018-12-24T16:38:40.152Z,4.60
2018-12-24T16:41:10.931Z,4.00
2018-12-24T16:43:41.559Z,4.23
2018-12-24T16:46:12.323Z,4.67
2018-12-24T16:48:42.530Z,4.40
2018-12-24T16:51:14.314Z,4.87
2018-12-24T16:53:44.512Z,5.10
2018-12-24T16:56:15.193Z,4.90
2018-12-24T16:58:45.513Z,4.90
2018-12-24T17:01:15.974Z,5.90
2018-12-24T17:03:46.337Z,6.33
2018-12-24T17:06:17.514Z,5.97
2018-12-24T17:08:47.879Z,6.07
2018-12-24T17:11:19.664Z,6.23
2018-12-24T17:13:51.929Z,5.23
2018-12-24T17:16:25.068Z,5.27
2018-12-24T17:18:55.623Z,5.50
2018-12-24T17:21:26.620Z,5.87
2018-12-24T17:23:57.123Z,6.47
2018-12-24T17:26:28.012Z,6.13
2018-12-24T17:28:58.278Z,6.70
2018-12-24T17:31:28.932Z,5.93
2018-12-24T17:33:59.617Z,5.27
2018-12-24T17:36:33.424Z,5.47
2018-12-24T17:39:05.707Z,5.80
2018-12-24T17:41:36.226Z,5.90
2018-12-24T17:44:25.419Z,5.57
2018-12-24T17:46:56.448Z,6.73
2018-12-24T17:49:26.450Z,5.77
2018-12-24T17:51:58.624Z,6.10
2018-12-24T17:54:28.711Z,5.27
2018-12-24T17:57:01.403Z,5.50
2018-12-24T17:59:31.545Z,5.57
2018-12-24T18:02:02.009Z,6.57
2018-12-24T18:04:32.394Z,7.27
2018-12-24T18:07:04.231Z,6.83
2018-12-24T18:09:35.033Z,7.50
2018-12-24T18:12:05.812Z,7.23
2018-12-24T18:14:36.746Z,7.23
2018-12-24T18:17:06.851Z,7.37
2018-12-24T18:19:36.898Z,7.30
2018-12-24T18:22:08.328Z,6.87
2018-12-24T18:24:39.400Z,6.90
2018-12-24T18:27:13.193Z,7.40
2018-12-24T18:29:43.245Z,6.03
2018-12-24T18:32:14.004Z,7.30
2018-12-24T18:34:44.483Z,8.03
2018-12-24T18:37:16.462Z,7.07
2018-12-24T18:39:47.255Z,6.70
2018-12-24T18:42:17.500Z,8.03
2018-12-24T18:44:47.854Z,8.13
2018-12-24T18:47:19.235Z,8.07
2018-12-24T18:49:49.540Z,8.90
2018-12-24T18:52:20.348Z,7.90
2018-12-24T18:54:50.505Z,6.73
2018-12-24T18:57:21.108Z,7.53
2018-12-24T18:59:52.095Z,7.40
2018-12-24T19:02:22.553Z,6.83
2018-12-24T19:04:55.190Z,6.77
2018-12-24T19:07:25.826Z,7.13
2018-12-24T19:09:56.206Z,6.40
2018-12-24T19:12:30.144Z,5.93
2018-12-24T19:15:00.862Z,6.80
2018-12-24T19:17:32.108Z,8.07
2018-12-24T19:20:02.151Z,7.23
2018-12-24T19:22:33.404Z,7.20
2018-12-24T19:25:03.800Z,6.83
2018-12-24T19:27:36.143Z,6.27
2018-12-24T19:30:07.723Z,5.60
2018-12-24T19:32:38.409Z,6.00
2018-12-24T19:35:08.426Z,7.40
2018-12-24T19:37:40.574Z,6.87
2018-12-24T19:40:10.970Z,6.53
2018-12-24T19:42:41.692Z,7.23
2018-12-24T19:45:11.628Z,8.43
2018-12-24T19:47:49.696Z,8.27
2018-12-24T19:50:13.683Z,8.87
2018-12-24T19:52:44.775Z,9.40
2018-12-24T19:55:15.155Z,9.47
2018-12-24T19:57:46.341Z,10.27
2018-12-24T20:00:16.937Z,9.30
2018-12-24T20:02:47.902Z,9.97
2018-12-24T20:05:18.722Z,9.30
2018-12-24T20:07:49.245Z,12.07
2018-12-24T20:10:19.345Z,11.83
2018-12-24T20:12:49.942Z,11.57
2018-12-24T20:15:20.098Z,10.57
2018-12-24T20:17:58.053Z,9.53
2018-12-24T20:20:22.723Z,9.33
2018-12-24T20:22:55.008Z,8.80
2018-12-24T20:25:25.051Z,10.13
2018-12-24T20:27:56.440Z,8.90
2018-12-24T20:30:26.778Z,8.10
2018-12-24T20:32:58.166Z,8.33
2018-12-24T20:35:28.430Z,8.53
2018-12-24T20:37:59.341Z,8.87
2018-12-24T20:40:30.016Z,8.63
2018-12-24T20:43:03.173Z,8.23
2018-12-24T20:45:33.139Z,7.30
2018-12-24T20:48:06.818Z,6.87
2018-12-24T20:50:36.944Z,6.70
2018-12-24T20:53:07.452Z,6.80
2018-12-24T20:55:37.819Z,7.80
2018-12-24T20:58:09.055Z,6.90
2018-12-24T21:00:39.118Z,7.07
2018-12-24T21:03:11.198Z,6.13
2018-12-24T21:05:41.319Z,6.50
2018-12-24T21:08:11.666Z,6.70
2018-12-24T21:10:41.684Z,7.27
2018-12-24T21:13:11.838Z,7.17
2018-12-24T21:15:42.213Z,7.33
2018-12-24T21:18:15.172Z,6.90
2018-12-24T21:20:45.415Z,7.30
2018-12-24T21:23:16.575Z,6.70
2018-12-24T21:25:47.092Z,7.43
2018-12-24T21:28:17.482Z,7.67
2018-12-24T21:30:47.790Z,7.53
2018-12-24T21:33:19.020Z,8.30
2018-12-24T21:35:49.433Z,7.43
2018-12-24T21:38:20.533Z,8.27
2018-12-24T21:40:51.038Z,9.47
2018-12-24T21:43:21.938Z,8.23
2018-12-24T21:45:52.027Z,8.97
2018-12-24T21:48:24.338Z,9.10
2018-12-24T21:50:55.027Z,9.10
2018-12-24T21:53:26.706Z,10.53
2018-12-24T21:55:56.795Z,9.87
2018-12-24T21:58:27.341Z,10.07
2018-12-24T22:01:18.293Z,9.30
2018-12-24T22:03:49.145Z,12.00
2018-12-24T22:06:19.060Z,11.47
2018-12-24T22:08:50.062Z,10.27
2018-12-24T22:11:20.375Z,10.80
2018-12-24T22:13:51.034Z,10.37
2018-12-24T22:16:22.035Z,9.80
2018-12-24T22:18:52.502Z,11.27
2018-12-24T22:21:22.848Z,10.17
2018-12-24T22:23:53.136Z,9.63
2018-12-24T22:26:23.358Z,9.80
2018-12-24T22:28:54.778Z,8.73
2018-12-24T22:31:24.902Z,9.57
2018-12-24T22:33:56.024Z,9.60
2018-12-24T22:36:26.688Z,9.30
2018-12-24T22:38:58.786Z,11.63
2018-12-24T22:41:29.048Z,12.60
2018-12-24T22:44:00.062Z,11.47
2018-12-24T22:46:30.563Z,11.50
2018-12-24T22:49:00.909Z,10.83
2018-12-24T22:51:31.315Z,10.27
2018-12-24T22:54:01.324Z,9.63
2018-12-24T22:56:31.283Z,10.37
2018-12-24T22:59:02.186Z,10.47
2018-12-24T23:01:33.091Z,9.30
2018-12-24T23:04:04.828Z,9.13
2018-12-24T23:06:35.380Z,9.37
2018-12-24T23:09:08.980Z,9.20
2018-12-24T23:11:39.405Z,8.93
2018-12-24T23:14:10.466Z,10.47
2018-12-24T23:16:40.787Z,9.20
2018-12-24T23:19:11.579Z,9.93
2018-12-24T23:21:42.283Z,10.20
2018-12-24T23:24:14.139Z,10.20
2018-12-24T23:26:44.481Z,10.27
2018-12-24T23:29:14.924Z,9.20
2018-12-24T23:31:45.124Z,9.87
2018-12-24T23:34:15.715Z,7.43
2018-12-24T23:36:45.774Z,7.63
2018-12-24T23:39:15.761Z,7.60
2018-12-24T23:41:45.819Z,7.83
2018-12-24T23:44:15.736Z,7.33
2018-12-24T23:46:45.964Z,7.27
2018-12-24T23:49:16.528Z,6.60
2018-12-24T23:51:46.584Z,5.73
2018-12-24T23:54:17.053Z,6.70
2018-12-24T23:56:46.947Z,6.90
2018-12-24T23:59:18.427Z,6.23
